Time;durP1;ratioP1;P1;durP2;ratioP2;P2;SDS_P1;SDS_P2;PMS_P1;PMS_P2;Temp;Humidity;BMP_temperature;BMP_pressure;BME280_temperature;BME280_humidity;BME280_pressure;Samples;Min_cycle;Max_cycle;Signal;HPM_P1;HPM_P2
2021/03/26 00:00:44;;;;;;;44.20;26.52;;;10.00;86.20;;;;;;5032572;28;20145;-70
2021/03/26 00:03:13;;;;;;;51.13;28.50;;;9.90;85.60;;;;;;5068603;28;20082;-70
2021/03/26 00:05:39;;;;;;;50.85;29.80;;;10.00;85.80;;;;;;5069898;28;20046;-70
2021/03/26 00:08:05;;;;;;;48.17;27.13;;;9.90;85.80;;;;;;5069052;28;20702;-69
2021/03/26 00:10:31;;;;;;;56.90;30.83;;;9.90;85.70;;;;;;5050491;28;20063;-69
2021/03/26 00:12:57;;;;;;;50.85;28.80;;;9.90;85.90;;;;;;5066088;28;20052;-69
2021/03/26 00:15:24;;;;;;;47.13;26.90;;;9.80;86.20;;;;;;5050707;28;20020;-70
2021/03/26 00:17:50;;;;;;;46.42;27.25;;;9.80;86.00;;;;;;5068488;28;20054;-70
2021/03/26 00:20:16;;;;;;;48.92;29.02;;;9.80;86.20;;;;;;5070496;28;20024;-69
2021/03/26 00:22:42;;;;;;;49.83;27.75;;;9.70;86.30;;;;;;5072146;28;20024;-70
2021/03/26 00:25:10;;;;;;;50.70;28.08;;;9.70;86.00;;;;;;5070019;28;20036;-70
2021/03/26 00:27:36;;;;;;;52.50;28.33;;;9.70;86.20;;;;;;5069828;28;20037;-69
2021/03/26 00:30:03;;;;;;;51.70;27.92;;;9.60;86.20;;;;;;5072044;28;20053;-70
2021/03/26 00:32:32;;;;;;;49.72;28.77;;;9.60;86.50;;;;;;5072311;28;20033;-70
2021/03/26 00:34:57;;;;;;;47.83;27.08;;;9.60;86.60;;;;;;5071466;28;20040;-70
2021/03/26 00:37:25;;;;;;;51.53;29.50;;;9.50;86.50;;;;;;5072043;28;20405;-69
2021/03/26 00:39:50;;;;;;;51.33;29.00;;;9.50;86.30;;;;;;5071393;28;20113;-70
2021/03/26 00:42:16;;;;;;;50.05;27.30;;;9.50;86.30;;;;;;5071467;28;20474;-69
2021/03/26 00:44:42;;;;;;;53.25;27.30;;;9.50;86.30;;;;;;5070863;28;20029;-69
2021/03/26 00:47:08;;;;;;;46.42;26.95;;;9.50;86.20;;;;;;5071504;28;20039;-69
2021/03/26 00:49:33;;;;;;;51.22;27.02;;;9.50;86.20;;;;;;5053218;28;20078;-70
2021/03/26 00:51:59;;;;;;;49.60;27.00;;;9.50;85.90;;;;;;5071238;28;20020;-69
2021/03/26 00:54:25;;;;;;;48.35;27.02;;;9.50;85.90;;;;;;5071595;28;20040;-70
2021/03/26 00:56:51;;;;;;;47.03;25.95;;;9.50;86.20;;;;;;5070442;28;20036;-70
2021/03/26 00:59:16;;;;;;;48.55;27.42;;;9.40;85.90;;;;;;5052564;28;20109;-69
2021/03/26 01:01:42;;;;;;;45.45;25.88;;;9.40;85.90;;;;;;5070980;28;20029;-69
2021/03/26 01:04:08;;;;;;;49.65;26.17;;;9.40;85.80;;;;;;5070369;28;20037;-69
2021/03/26 01:06:34;;;;;;;44.33;25.63;;;9.40;85.60;;;;;;5071470;28;20029;-69
2021/03/26 01:09:00;;;;;;;44.78;25.90;;;9.40;85.70;;;;;;5071157;28;20059;-69
2021/03/26 01:11:29;;;;;;;39.67;23.80;;;9.30;85.50;;;;;;5053278;28;20110;-69
2021/03/26 01:13:56;;;;;;;48.45;26.17;;;9.30;85.50;;;;;;5071192;28;20029;-69
2021/03/26 01:16:26;;;;;;;42.28;23.25;;;9.30;85.40;;;;;;5071551;28;20028;-69
2021/03/26 01:18:53;;;;;;;40.75;23.45;;;9.30;85.20;;;;;;5068550;28;20082;-69
2021/03/26 01:21:22;;;;;;;45.05;25.45;;;9.30;84.90;;;;;;5052286;28;20025;-70
2021/03/26 01:23:48;;;;;;;49.17;25.40;;;9.30;84.90;;;;;;5070258;28;20458;-69
2021/03/26 01:26:14;;;;;;;45.85;25.70;;;9.30;84.80;;;;;;5070097;28;20021;-69
2021/03/26 01:28:40;;;;;;;47.97;23.98;;;9.30;84.80;;;;;;5070849;28;20082;-69
2021/03/26 01:31:06;;;;;;;46.15;25.02;;;9.30;84.20;;;;;;5069469;28;20048;-69
2021/03/26 01:33:32;;;;;;;39.40;22.70;;;9.30;84.30;;;;;;5069994;28;20078;-69
2021/03/26 01:35:58;;;;;;;46.15;24.70;;;9.30;84.90;;;;;;5070610;28;20025;-68
2021/03/26 01:38:25;;;;;;;43.53;23.98;;;9.20;84.50;;;;;;5071287;28;20036;-69
2021/03/26 01:40:55;;;;;;;42.45;23.92;;;9.20;84.50;;;;;;5068933;28;20032;-69
2021/03/26 01:43:27;;;;;;;41.17;23.10;;;9.20;84.80;;;;;;5071080;28;20107;-69
2021/03/26 01:45:55;;;;;;;42.50;24.08;;;9.20;84.80;;;;;;5071058;28;20060;-69
2021/03/26 01:48:30;;;;;;;41.17;23.25;;;9.10;85.00;;;;;;5070827;28;20032;-69
2021/03/26 01:50:57;;;;;;;40.85;22.48;;;9.10;84.60;;;;;;5069942;28;20051;-70
2021/03/26 01:53:24;;;;;;;39.22;23.83;;;9.10;84.60;;;;;;5070627;28;20373;-70
2021/03/26 01:55:52;;;;;;;41.40;22.77;;;9.10;84.40;;;;;;5069533;28;20033;-70
2021/03/26 01:58:22;;;;;;;42.50;23.55;;;9.10;84.70;;;;;;5070307;28;20025;-70
2021/03/26 02:00:52;;;;;;;42.25;22.55;;;9.10;84.80;;;;;;5069789;28;20589;-69
2021/03/26 02:03:23;;;;;;;41.35;22.63;;;9.00;84.60;;;;;;5069814;28;20028;-69
2021/03/26 02:05:51;;;;;;;40.70;22.98;;;9.00;84.50;;;;;;5070090;28;20123;-69
2021/03/26 02:08:23;;;;;;;38.83;22.45;;;9.00;84.50;;;;;;5069585;28;20056;-69
2021/03/26 02:10:48;;;;;;;36.45;21.50;;;9.00;84.40;;;;;;5052270;28;20561;-69
2021/03/26 02:13:27;;;;;;;46.60;23.95;;;9.00;84.20;;;;;;5069745;28;20112;-69
2021/03/26 02:15:55;;;;;;;38.72;21.63;;;9.00;84.00;;;;;;5068398;28;20033;-69
2021/03/26 02:18:30;;;;;;;41.05;22.88;;;9.00;84.20;;;;;;5051531;28;20106;-69
2021/03/26 02:21:06;;;;;;;37.85;21.33;;;9.00;84.10;;;;;;5068528;28;20039;-69
2021/03/26 02:23:35;;;;;;;38.22;20.58;;;8.90;84.00;;;;;;5070157;28;20059;-70
2021/03/26 02:26:06;;;;;;;38.13;21.05;;;8.90;83.90;;;;;;5070289;28;20446;-69
2021/03/26 02:28:32;;;;;;;35.65;19.25;;;8.90;83.90;;;;;;5068482;28;20107;-69
2021/03/26 02:31:00;;;;;;;35.30;19.98;;;8.90;83.60;;;;;;5069944;28;20100;-69
2021/03/26 02:33:26;;;;;;;44.72;22.38;;;8.90;83.70;;;;;;5069577;28;20051;-69
2021/03/26 02:36:16;;;;;;;35.97;20.77;;;8.90;83.70;;;;;;5068521;28;20090;-70
2021/03/26 02:38:50;;;;;;;37.58;19.30;;;8.80;83.70;;;;;;5069731;28;20095;-70
2021/03/26 02:41:24;;;;;;;40.42;21.38;;;8.80;84.00;;;;;;5069956;28;20040;-69
2021/03/26 02:44:08;;;;;;;36.38;20.42;;;8.70;84.00;;;;;;5068197;28;20025;-69
2021/03/26 02:46:42;;;;;;;38.35;21.17;;;8.70;84.10;;;;;;5069816;28;20025;-69
2021/03/26 02:49:17;;;;;;;39.58;20.50;;;8.80;84.40;;;;;;5066925;28;20035;-70
2021/03/26 02:51:49;;;;;;;43.10;21.92;;;8.70;84.60;;;;;;5069851;28;20040;-69
2021/03/26 02:54:28;;;;;;;44.92;23.23;;;8.70;85.00;;;;;;5068906;28;20418;-69
2021/03/26 02:57:01;;;;;;;47.33;22.90;;;8.60;85.20;;;;;;5067314;28;20020;-69
2021/03/26 02:59:42;;;;;;;42.50;22.90;;;8.60;85.20;;;;;;5069469;28;20103;-69
2021/03/26 03:02:12;;;;;;;40.00;21.52;;;8.60;85.50;;;;;;5068890;28;20370;-70
2021/03/26 03:05:01;;;;;;;46.72;22.83;;;8.60;85.50;;;;;;5070176;28;20047;-69
2021/03/26 03:07:35;;;;;;;46.03;23.95;;;8.60;85.70;;;;;;5047591;28;21611;-69
2021/03/26 03:10:19;;;;;;;48.60;24.50;;;8.60;85.90;;;;;;5066816;28;20032;-69
2021/03/26 03:12:46;;;;;;;45.25;23.48;;;8.60;85.60;;;;;;5069031;28;20043;-69
2021/03/26 03:15:18;;;;;;;46.08;24.90;;;8.60;86.10;;;;;;5069248;28;20103;-69
2021/03/26 03:18:06;;;;;;;47.22;24.70;;;8.60;86.10;;;;;;5068107;28;20056;-68
2021/03/26 03:20:44;;;;;;;56.78;27.10;;;8.50;86.30;;;;;;5069072;28;20025;-70
2021/03/26 03:23:23;;;;;;;54.70;26.13;;;8.50;86.40;;;;;;5071368;28;20033;-69
2021/03/26 03:26:04;;;;;;;51.83;25.67;;;8.50;86.60;;;;;;5073877;28;20024;-69
2021/03/26 03:28:51;;;;;;;51.97;25.93;;;8.50;86.70;;;;;;5073272;28;20194;-69
2021/03/26 03:31:31;;;;;;;58.67;29.55;;;8.50;87.00;;;;;;5072897;28;20285;-69
2021/03/26 03:34:06;;;;;;;54.92;28.08;;;8.50;87.20;;;;;;5071022;28;20033;-69
2021/03/26 03:36:44;;;;;;;52.22;27.52;;;8.40;87.10;;;;;;5071016;28;20093;-69
2021/03/26 03:39:35;;;;;;;56.33;28.25;;;8.40;86.90;;;;;;5071637;28;20452;-69
2021/03/26 03:42:07;;;;;;;56.88;28.67;;;8.50;87.20;;;;;;5040271;28;20079;-69
2021/03/26 03:44:37;;;;;;;58.55;28.75;;;8.50;87.40;;;;;;5072571;28;20028;-69
2021/03/26 03:47:25;;;;;;;55.70;27.38;;;8.50;87.10;;;;;;5070640;28;20470;-69
2021/03/26 03:50:07;;;;;;;58.47;29.38;;;8.50;87.60;;;;;;5068599;28;20032;-69
2021/03/26 03:52:53;;;;;;;57.22;29.65;;;8.40;87.40;;;;;;5070506;28;20449;-69
2021/03/26 03:55:42;;;;;;;57.33;28.30;;;8.40;87.50;;;;;;5070294;28;20440;-69
2021/03/26 03:58:08;;;;;;;58.15;28.33;;;8.40;87.80;;;;;;5050367;28;20032;-69
2021/03/26 04:00:42;;;;;;;53.75;28.52;;;8.40;87.70;;;;;;5052399;28;20032;-69
2021/03/26 04:03:17;;;;;;;57.38;29.52;;;8.40;87.70;;;;;;5070969;28;20044;-69
2021/03/26 04:05:58;;;;;;;60.78;30.05;;;8.40;87.70;;;;;;5071260;28;20408;-69
2021/03/26 04:08:34;;;;;;;57.58;29.08;;;8.40;87.50;;;;;;5072226;28;20028;-69
2021/03/26 04:11:15;;;;;;;54.53;28.35;;;8.40;87.70;;;;;;5069214;28;20020;-69
2021/03/26 04:14:01;;;;;;;57.75;30.75;;;8.40;87.50;;;;;;5069585;28;20060;-69
2021/03/26 04:16:28;;;;;;;60.38;29.80;;;8.40;87.50;;;;;;5070470;28;20047;-69
2021/03/26 04:19:06;;;;;;;53.08;27.58;;;8.40;87.40;;;;;;5069386;28;20040;-69
2021/03/26 04:21:39;;;;;;;58.45;30.92;;;8.40;87.40;;;;;;5069975;28;20079;-69
2021/03/26 04:24:27;;;;;;;60.42;30.45;;;8.40;87.30;;;;;;5070851;28;20139;-69
2021/03/26 04:27:00;;;;;;;54.38;27.42;;;8.40;87.50;;;;;;5069399;28;20029;-68
2021/03/26 04:29:33;;;;;;;56.28;30.55;;;8.40;87.40;;;;;;5069013;28;20017;-69
2021/03/26 04:32:06;;;;;;;55.15;28.65;;;8.40;87.10;;;;;;5070917;28;20033;-69
2021/03/26 04:34:33;;;;;;;55.50;28.20;;;8.40;87.30;;;;;;5071193;28;20513;-69
2021/03/26 04:36:58;;;;;;;55.92;27.48;;;8.40;87.30;;;;;;5070084;28;20068;-69
2021/03/26 04:39:43;;;;;;;53.30;26.42;;;8.30;87.10;;;;;;5071012;28;20058;-69
2021/03/26 04:42:13;;;;;;;57.17;27.63;;;8.30;87.20;;;;;;5070730;28;20028;-69
2021/03/26 04:45:01;;;;;;;55.83;29.15;;;8.30;86.80;;;;;;5067967;28;20032;-69
2021/03/26 04:47:53;;;;;;;56.25;27.67;;;8.40;86.90;;;;;;5069640;28;20440;-69
2021/03/26 04:50:30;;;;;;;55.95;28.25;;;8.30;86.80;;;;;;5070671;28;20028;-69
2021/03/26 04:53:04;;;;;;;50.60;26.73;;;8.30;86.60;;;;;;5069378;28;20040;-69
2021/03/26 04:55:35;;;;;;;50.88;26.90;;;8.30;86.80;;;;;;5069293;28;20489;-70
2021/03/26 04:58:24;;;;;;;53.22;27.92;;;8.30;87.00;;;;;;5069819;28;20048;-69
2021/03/26 05:01:16;;;;;;;52.30;27.27;;;8.30;86.40;;;;;;5064415;28;20061;-70
2021/03/26 05:03:48;;;;;;;54.88;26.88;;;8.30;86.30;;;;;;5064890;28;20041;-69
2021/03/26 05:06:24;;;;;;;;;;;8.30;86.30;;;;;;5068285;28;20471;-69
2021/03/26 05:09:15;;;;;;;49.25;24.88;;;8.30;86.30;;;;;;5068854;28;19908;-70
2021/03/26 05:11:44;;;;;;;53.13;27.40;;;8.30;86.40;;;;;;5069406;28;20110;-70
2021/03/26 05:14:20;;;;;;;49.90;26.67;;;8.40;86.30;;;;;;5069985;28;20040;-70
2021/03/26 05:16:52;;;;;;;51.22;27.88;;;8.40;86.50;;;;;;5068604;28;20129;-70
2021/03/26 05:19:36;;;;;;;;;;;8.40;86.60;;;;;;5049146;28;20024;-69
2021/03/26 05:22:29;;;;;;;49.25;26.33;;;8.40;86.90;;;;;;5068326;28;19923;-70
2021/03/26 05:25:03;;;;;;;51.85;28.15;;;8.40;87.10;;;;;;5066562;28;20115;-69
2021/03/26 05:27:29;;;;;;;54.80;28.35;;;8.30;87.20;;;;;;5068558;28;20183;-69
2021/03/26 05:29:55;;;;;;;54.42;29.42;;;8.40;87.20;;;;;;5068475;28;20394;-70
2021/03/26 05:32:30;;;;;;;54.35;28.25;;;8.40;87.30;;;;;;5068518;28;20390;-70
2021/03/26 05:35:07;;;;;;;55.30;29.23;;;8.40;87.40;;;;;;5066721;28;20033;-70
2021/03/26 05:37:42;;;;;;;55.90;29.02;;;8.40;87.40;;;;;;5068142;28;20060;-70
2021/03/26 05:40:41;;;;;;;56.28;30.50;;;8.40;87.50;;;;;;5068948;28;20028;-69
2021/03/26 05:43:35;;;;;;;50.40;27.45;;;8.50;87.70;;;;;;5049186;28;20409;-71
2021/03/26 05:46:35;;;;;;;58.75;28.10;;;8.50;87.60;;;;;;5069345;28;20070;-75
2021/03/26 05:49:31;;;;;;;51.75;27.52;;;8.40;87.60;;;;;;5036694;28;20044;-69
2021/03/26 05:51:57;;;;;;;55.13;29.10;;;8.40;87.40;;;;;;5067637;28;20036;-69
2021/03/26 05:54:46;;;;;;;49.90;27.00;;;8.40;87.70;;;;;;5066426;28;20036;-70
2021/03/26 05:57:32;;;;;;;60.92;31.35;;;8.50;88.00;;;;;;5066676;28;20020;-69
2021/03/26 06:00:37;;;;;;;53.63;28.20;;;8.50;88.20;;;;;;5068167;28;20036;-69
2021/03/26 06:03:20;;;;;;;58.22;29.85;;;8.50;88.00;;;;;;5067219;28;20060;-69
2021/03/26 06:06:23;;;;;;;56.05;29.90;;;8.50;88.10;;;;;;5068324;28;20107;-69
2021/03/26 06:09:07;;;;;;;55.83;29.55;;;8.50;88.10;;;;;;5068829;28;20031;-69
2021/03/26 06:11:52;;;;;;;58.67;29.42;;;8.60;88.60;;;;;;5067067;28;20028;-69
2021/03/26 06:14:53;;;;;;;50.55;28.65;;;8.60;89.00;;;;;;5064916;28;20032;-69
2021/03/26 06:17:52;;;;;;;53.63;29.98;;;8.60;88.20;;;;;;5067712;28;20222;-71
2021/03/26 06:20:46;;;;;;;57.17;29.67;;;8.60;88.90;;;;;;5066172;28;20032;-69
2021/03/26 06:23:31;;;;;;;55.70;25.83;;;8.60;88.70;;;;;;5067099;28;20075;-70
2021/03/26 06:26:34;;;;;;;61.65;30.63;;;9.10;89.80;;;;;;5066907;28;20036;-70
2021/03/26 06:29:26;;;;;;;55.22;29.45;;;9.50;86.10;;;;;;5047882;28;20062;-69
2021/03/26 06:32:27;;;;;;;57.22;30.88;;;9.50;85.70;;;;;;5035700;28;20059;-71
2021/03/26 06:35:30;;;;;;;58.38;31.70;;;9.30;86.30;;;;;;5067316;28;20032;-70
2021/03/26 06:38:02;;;;;;;55.60;30.70;;;9.20;86.90;;;;;;5067541;28;20032;-70
2021/03/26 06:40:36;;;;;;;59.20;30.95;;;9.10;87.20;;;;;;5050126;28;20142;-69
2021/03/26 06:43:17;;;;;;;60.20;33.65;;;9.10;87.40;;;;;;5063927;28;20087;-70
2021/03/26 06:46:20;;;;;;;54.08;30.65;;;9.10;87.90;;;;;;5068619;28;20490;-70
2021/03/26 06:49:17;;;;;;;62.00;32.65;;;9.10;88.10;;;;;;5068317;28;20032;-70
2021/03/26 06:52:10;;;;;;;60.38;33.80;;;9.20;88.30;;;;;;5066124;28;20024;-70
2021/03/26 06:55:12;;;;;;;55.30;32.15;;;9.10;88.40;;;;;;5068626;28;20038;-71
2021/03/26 06:58:16;;;;;;;60.17;32.58;;;9.20;88.60;;;;;;5043140;28;20539;-70
2021/03/26 07:00:54;;;;;;;55.63;31.13;;;9.20;88.40;;;;;;5067003;28;20036;-70
2021/03/26 07:03:58;;;;;;;57.63;31.67;;;9.20;88.60;;;;;;5067960;28;20074;-69
2021/03/26 07:07:13;;;;;;;66.85;34.20;;;9.20;88.70;;;;;;5066951;28;20036;-70
2021/03/26 07:09:51;;;;;;;56.63;32.03;;;9.30;88.50;;;;;;5061131;28;20091;-69
2021/03/26 07:12:42;;;;;;;60.97;33.53;;;9.30;88.70;;;;;;5066276;28;22812;-71
2021/03/26 07:15:08;;;;;;;;;;;9.30;88.50;;;;;;5068037;28;20033;-69
2021/03/26 07:18:02;;;;;;;61.58;33.28;;;9.40;88.40;;;;;;5068779;28;20340;-70
2021/03/26 07:20:36;;;;;;;59.97;33.10;;;9.40;88.40;;;;;;5066716;28;20024;-69
2021/03/26 07:23:32;;;;;;;59.03;32.75;;;9.40;88.40;;;;;;5068022;28;20036;-70
2021/03/26 07:26:19;;;;;;;59.40;32.70;;;9.50;88.30;;;;;;5066883;28;20060;-70
2021/03/26 07:31:59;;;;;;;56.47;32.05;;;9.60;87.90;;;;;;5067216;28;20036;-69
2021/03/26 07:34:31;;;;;;;;;;;9.60;88.10;;;;;;5064611;28;20067;-69
2021/03/26 07:37:15;;;;;;;58.72;32.03;;;9.70;87.80;;;;;;5065007;28;19934;-69
2021/03/26 07:39:52;;;;;;;55.55;32.17;;;9.80;87.20;;;;;;5049374;28;20024;-69
2021/03/26 07:42:23;;;;;;;59.63;34.03;;;9.90;87.30;;;;;;5048360;28;20021;-69
2021/03/26 07:45:12;;;;;;;62.45;34.70;;;9.80;87.50;;;;;;5064194;28;20036;-69
2021/03/26 07:47:41;;;;;;;62.55;34.60;;;9.80;87.60;;;;;;5063324;28;20474;-69
2021/03/26 07:50:38;;;;;;;63.38;33.60;;;9.80;87.50;;;;;;5065210;28;20478;-69
2021/03/26 07:53:18;;;;;;;61.25;34.78;;;9.90;87.30;;;;;;5063668;28;20045;-69
2021/03/26 07:55:56;;;;;;;64.28;33.22;;;10.00;87.20;;;;;;5065387;28;20029;-69
2021/03/26 07:58:36;;;;;;;61.08;34.30;;;10.00;87.40;;;;;;5059021;28;20037;-69
2021/03/26 08:01:32;;;;;;;59.67;33.67;;;10.10;86.80;;;;;;5061402;28;20035;-68
2021/03/26 08:04:07;;;;;;;57.95;34.22;;;10.10;86.80;;;;;;5047379;28;20073;-70
2021/03/26 08:06:47;;;;;;;57.53;34.65;;;10.20;86.60;;;;;;5057031;28;20024;-69
2021/03/26 08:09:25;;;;;;;63.70;33.50;;;10.20;86.30;;;;;;5062204;28;20029;-69
2021/03/26 08:12:10;;;;;;;54.40;31.45;;;10.30;86.20;;;;;;5057449;28;20086;-71
2021/03/26 08:15:15;;;;;;;58.53;34.00;;;10.30;86.10;;;;;;5058375;28;20033;-69
2021/03/26 08:17:59;;;;;;;58.05;33.80;;;10.40;85.80;;;;;;5060943;28;20437;-71
2021/03/26 08:20:59;;;;;;;53.97;32.00;;;10.40;85.50;;;;;;5061754;28;20025;-68
2021/03/26 08:23:40;;;;;;;55.58;32.63;;;10.50;85.20;;;;;;5068595;28;20033;-68
2021/03/26 08:26:12;;;;;;;;;;;10.50;84.80;;;;;;5052986;28;20044;-71
2021/03/26 08:29:24;;;;;;;46.63;27.77;;;10.60;84.40;;;;;;5062198;28;20101;-70
2021/03/26 08:32:08;;;;;;;54.85;31.65;;;10.80;84.10;;;;;;5062349;28;20024;-69
2021/03/26 08:35:01;;;;;;;53.17;31.02;;;11.00;83.40;;;;;;5061764;28;20106;-70
2021/03/26 08:37:53;;;;;;;48.25;28.88;;;11.10;82.10;;;;;;5044237;28;20106;-70
2021/03/26 08:40:25;;;;;;;47.08;28.10;;;11.30;81.20;;;;;;5028876;28;20150;-69
2021/03/26 08:42:54;;;;;;;49.03;28.25;;;11.40;80.30;;;;;;5040394;28;20119;-69
2021/03/26 08:45:33;;;;;;;36.17;23.33;;;11.50;79.20;;;;;;5061968;28;20060;-69
2021/03/26 08:48:14;;;;;;;38.85;22.95;;;11.60;77.20;;;;;;5062860;28;20036;-69
2021/03/26 08:50:59;;;;;;;39.88;21.55;;;11.60;76.50;;;;;;5058814;28;20066;-68
2021/03/26 08:53:36;;;;;;;30.33;19.27;;;11.90;74.00;;;;;;5068347;28;20032;-68
2021/03/26 08:56:27;;;;;;;30.20;17.67;;;11.90;73.60;;;;;;5068680;28;20489;-69
2021/03/26 08:59:02;;;;;;;30.25;17.77;;;12.00;70.50;;;;;;5067942;28;20405;-68
2021/03/26 09:01:45;;;;;;;32.63;17.90;;;12.10;70.60;;;;;;5069096;28;20454;-70
2021/03/26 09:04:42;;;;;;;35.53;20.13;;;12.00;72.00;;;;;;5068369;28;20039;-72
2021/03/26 09:07:26;;;;;;;35.65;19.13;;;12.00;72.30;;;;;;5067507;28;20021;-70
2021/03/26 09:10:02;;;;;;;32.25;19.92;;;12.00;72.70;;;;;;5067276;28;20028;-69
2021/03/26 09:13:10;;;;;;;35.25;20.35;;;12.10;71.80;;;;;;5054710;28;20382;-70
2021/03/26 09:15:55;;;;;;;33.70;19.83;;;12.20;71.60;;;;;;5057806;28;20040;-69
2021/03/26 09:18:33;;;;;;;31.75;19.60;;;12.30;71.60;;;;;;5067033;28;20549;-70
2021/03/26 09:21:19;;;;;;;33.95;18.40;;;12.40;71.10;;;;;;5067873;28;20426;-70
2021/03/26 09:24:06;;;;;;;29.60;17.05;;;12.40;70.30;;;;;;5068753;28;20033;-71
2021/03/26 09:26:53;;;;;;;24.60;14.65;;;12.50;70.00;;;;;;5071785;28;20500;-70
2021/03/26 09:29:45;;;;;;;21.88;13.80;;;12.60;68.50;;;;;;5069361;28;20486;-70
2021/03/26 09:32:19;;;;;;;19.42;11.80;;;12.70;66.40;;;;;;5068119;28;20020;-70
2021/03/26 09:35:26;;;;;;;19.73;12.43;;;12.50;66.80;;;;;;5057877;23;20049;-72
2021/03/26 09:38:07;;;;;;;23.27;14.85;;;12.50;66.90;;;;;;5009541;28;20395;-72
2021/03/26 09:40:50;;;;;;;26.88;15.90;;;12.60;67.30;;;;;;5030038;28;20029;-72
2021/03/26 09:43:29;;;;;;;23.75;14.57;;;12.50;67.50;;;;;;5029294;28;20057;-72
2021/03/26 09:46:02;;;;;;;22.90;14.07;;;12.40;68.30;;;;;;5030099;28;20022;-72
2021/03/26 09:48:53;;;;;;;23.80;15.20;;;12.50;68.00;;;;;;5028275;28;20025;-71
2021/03/26 09:51:57;;;;;;;26.88;15.85;;;12.60;67.90;;;;;;5030944;28;20047;-71
2021/03/26 09:54:43;;;;;;;27.95;14.65;;;12.50;68.70;;;;;;5028159;28;20038;-74
2021/03/26 09:57:35;;;;;;;21.90;13.13;;;12.50;68.40;;;;;;5029999;28;20029;-72
2021/03/26 10:00:13;;;;;;;24.95;13.95;;;12.60;66.60;;;;;;5030850;28;20458;-72
2021/03/26 10:02:42;;;;;;;22.50;14.00;;;12.60;66.90;;;;;;5045670;28;20036;-76
2021/03/26 10:05:32;;;;;;;24.90;15.05;;;12.60;67.20;;;;;;5030385;28;20029;-72
2021/03/26 10:08:07;;;;;;;26.98;13.80;;;12.70;67.40;;;;;;5031867;28;20029;-72
2021/03/26 10:13:22;;;;;;;26.33;14.38;;;12.80;66.80;;;;;;5028521;28;20034;-74
2021/03/26 10:16:02;;;;;;;23.08;14.02;;;12.80;67.10;;;;;;4988605;28;20097;-74
2021/03/26 10:18:41;;;;;;;23.85;15.15;;;13.00;66.00;;;;;;4987857;28;20217;-73
2021/03/26 10:21:19;;;;;;;26.23;15.38;;;12.90;66.70;;;;;;4985949;28;21198;-73
2021/03/26 10:23:44;;;;;;;24.35;15.77;;;12.90;66.70;;;;;;4985181;28;20113;-73
2021/03/26 10:26:24;;;;;;;27.50;14.25;;;12.90;66.80;;;;;;4986141;28;20105;-75
2021/03/26 10:29:19;;;;;;;24.60;15.18;;;13.00;66.20;;;;;;4987469;28;20030;-73
2021/03/26 10:31:50;;;;;;;25.95;15.13;;;13.00;66.70;;;;;;4984194;28;20042;-72
2021/03/26 10:34:29;;;;;;;20.42;12.85;;;13.10;66.70;;;;;;4986945;28;20508;-75
2021/03/26 10:36:59;;;;;;;22.65;13.43;;;13.20;65.60;;;;;;4987361;28;20515;-74
2021/03/26 10:39:47;;;;;;;22.95;14.13;;;13.30;66.10;;;;;;4985581;28;20069;-75
2021/03/26 10:42:30;;;;;;;25.13;12.30;;;13.50;65.30;;;;;;4985730;28;20566;-74
2021/03/26 10:45:17;;;;;;;16.67;10.35;;;13.80;64.30;;;;;;4986098;28;20124;-73
2021/03/26 10:47:58;;;;;;;13.98;10.07;;;14.00;62.10;;;;;;4987042;28;20034;-73
2021/03/26 10:50:27;;;;;;;;;;;14.10;60.60;;;;;;4985665;28;20040;-73
2021/03/26 10:53:18;;;;;;;20.50;11.98;;;14.10;61.10;;;;;;5008387;28;19909;-72
2021/03/26 10:56:06;;;;;;;18.33;9.87;;;14.10;60.60;;;;;;5028058;28;20017;-71
2021/03/26 10:58:38;;;;;;;20.02;12.00;;;14.10;61.70;;;;;;5030115;28;20757;-74
2021/03/26 11:01:26;;;;;;;18.10;10.63;;;14.30;59.90;;;;;;5031127;28;20526;-77
2021/03/26 11:04:09;;;;;;;16.85;10.85;;;14.30;59.50;;;;;;5043444;28;20393;-75
2021/03/26 11:06:42;;;;;;;16.45;10.07;;;14.30;59.30;;;;;;5027057;28;20032;-74
2021/03/26 11:09:42;;;;;;;17.50;10.60;;;14.40;59.60;;;;;;5029595;28;20409;-76
2021/03/26 11:12:27;;;;;;;18.88;10.95;;;14.40;59.80;;;;;;5023927;28;20095;-74
2021/03/26 11:15:19;;;;;;;15.07;10.13;;;14.40;59.10;;;;;;5029275;28;20060;-72
2021/03/26 11:18:19;;;;;;;18.33;10.90;;;14.40;58.90;;;;;;5024970;28;20049;-73
2021/03/26 11:20:59;;;;;;;18.40;9.73;;;14.50;58.00;;;;;;5042411;28;20025;-72
2021/03/26 11:23:34;;;;;;;13.40;8.57;;;14.80;56.60;;;;;;5031822;28;20092;-73
2021/03/26 11:26:05;;;;;;;14.82;8.45;;;14.60;57.00;;;;;;5029886;28;20045;-71
2021/03/26 11:28:40;;;;;;;11.85;8.10;;;14.60;57.10;;;;;;5027476;28;20040;-72
2021/03/26 11:31:12;;;;;;;11.90;7.85;;;14.50;56.80;;;;;;5029263;28;20021;-74
2021/03/26 11:33:53;;;;;;;16.85;9.35;;;14.40;57.90;;;;;;5029249;28;20033;-70
2021/03/26 11:36:46;;;;;;;15.48;9.40;;;14.50;56.90;;;;;;5029397;28;20487;-71
2021/03/26 11:39:12;;;;;;;16.55;8.80;;;14.90;57.00;;;;;;5029921;28;20124;-71
2021/03/26 11:41:47;;;;;;;15.05;10.05;;;14.90;57.50;;;;;;5030040;28;20093;-72
2021/03/26 11:44:16;;;;;;;10.27;7.43;;;14.90;54.50;;;;;;5033586;28;20029;-71
2021/03/26 11:46:50;;;;;;;10.75;7.03;;;15.00;54.20;;;;;;5034196;28;20096;-72
2021/03/26 11:49:19;;;;;;;11.40;8.02;;;14.90;54.90;;;;;;5032115;28;20030;-72
2021/03/26 11:52:10;;;;;;;14.93;7.70;;;14.80;54.40;;;;;;5034345;28;20033;-71
2021/03/26 11:54:45;;;;;;;11.40;6.28;;;14.90;53.80;;;;;;5033162;28;20402;-72
2021/03/26 11:57:38;;;;;;;11.40;6.68;;;14.90;53.00;;;;;;5035485;28;20578;-73
2021/03/26 12:00:20;;;;;;;11.57;7.38;;;14.90;53.20;;;;;;5048824;28;20036;-74
2021/03/26 12:02:55;;;;;;;11.18;7.25;;;14.70;54.10;;;;;;5032105;28;20053;-73
2021/03/26 12:05:58;;;;;;;13.18;8.32;;;14.60;55.10;;;;;;5035104;28;20021;-71
2021/03/26 12:08:33;;;;;;;12.57;7.70;;;14.60;53.90;;;;;;5029586;28;20097;-73
2021/03/26 12:11:08;;;;;;;12.88;7.53;;;14.90;53.10;;;;;;5033116;28;20043;-74
2021/03/26 12:13:43;;;;;;;11.40;6.78;;;14.90;54.40;;;;;;5032263;28;20504;-72
2021/03/26 12:16:11;;;;;;;12.65;7.80;;;14.90;54.50;;;;;;5030931;28;20037;-71
2021/03/26 12:18:54;;;;;;;13.25;7.03;;;15.00;53.30;;;;;;5035882;28;20033;-72
2021/03/26 12:21:29;;;;;;;10.35;6.55;;;15.20;53.10;;;;;;5033413;28;20033;-72
2021/03/26 12:24:18;;;;;;;8.85;6.22;;;15.40;53.80;;;;;;5031932;28;20026;-72
2021/03/26 12:27:05;;;;;;;13.48;7.25;;;15.90;51.70;;;;;;5032615;28;20086;-72
2021/03/26 12:29:51;;;;;;;10.77;6.78;;;16.00;50.10;;;;;;5029839;28;20029;-72
2021/03/26 12:32:33;;;;;;;11.48;7.63;;;16.10;48.80;;;;;;5005851;28;20037;-72
2021/03/26 12:35:14;;;;;;;9.82;7.28;;;15.90;49.80;;;;;;5030791;28;20395;-72
2021/03/26 12:37:48;;;;;;;12.38;8.35;;;16.10;51.40;;;;;;5030216;28;20025;-72
2021/03/26 12:40:20;;;;;;;11.05;7.57;;;17.10;49.10;;;;;;5032159;28;20029;-72
2021/03/26 12:42:53;;;;;;;10.32;7.15;;;17.30;47.40;;;;;;5030168;28;20029;-72
2021/03/26 12:45:24;;;;;;;10.57;7.65;;;17.50;44.50;;;;;;5030662;28;20026;-72
2021/03/26 12:47:54;;;;;;;9.50;6.97;;;17.20;45.60;;;;;;5030758;28;20033;-71
2021/03/26 12:50:23;;;;;;;11.53;7.80;;;17.10;46.40;;;;;;5032163;28;20477;-70
2021/03/26 12:53:02;;;;;;;14.95;9.15;;;17.10;45.90;;;;;;5030488;28;20065;-70
2021/03/26 12:55:34;;;;;;;10.68;7.80;;;17.00;45.70;;;;;;5030284;28;20022;-72
2021/03/26 12:58:18;;;;;;;11.73;8.32;;;16.60;46.70;;;;;;5031316;28;20051;-71
2021/03/26 13:00:56;;;;;;;14.00;8.80;;;16.50;47.10;;;;;;5044657;28;20447;-71
2021/03/26 13:03:39;;;;;;;11.60;8.77;;;16.30;48.10;;;;;;5031288;28;20029;-70
2021/03/26 13:06:15;;;;;;;16.00;9.63;;;16.40;48.00;;;;;;5030644;28;20425;-71
2021/03/26 13:08:45;;;;;;;16.02;10.20;;;16.30;48.80;;;;;;5031693;28;20103;-71
2021/03/26 13:11:19;;;;;;;15.18;11.05;;;16.10;49.50;;;;;;5049385;28;20087;-70
2021/03/26 13:13:56;;;;;;;16.42;11.95;;;16.00;49.80;;;;;;5031990;28;20369;-70
2021/03/26 13:16:45;;;;;;;16.85;11.35;;;16.40;48.60;;;;;;5030095;28;20101;-71
2021/03/26 13:19:20;;;;;;;16.55;11.65;;;16.30;48.80;;;;;;5030091;28;20033;-72
2021/03/26 13:22:05;;;;;;;19.05;12.65;;;16.20;50.10;;;;;;5044636;28;20053;-72
2021/03/26 13:25:28;;;;;;;17.65;13.13;;;16.10;50.00;;;;;;5030809;28;20025;-72
2021/03/26 13:27:57;;;;;;;20.88;12.52;;;15.80;50.80;;;;;;5005038;28;20033;-72
2021/03/26 13:30:34;;;;;;;18.80;13.05;;;15.60;51.80;;;;;;5007275;28;20026;-74
2021/03/26 13:33:11;;;;;;;19.83;14.50;;;15.50;52.60;;;;;;4985396;28;20046;-72
2021/03/26 13:35:44;;;;;;;21.25;14.35;;;15.70;52.50;;;;;;5006497;28;20053;-74
2021/03/26 13:38:45;;;;;;;23.80;16.00;;;15.70;53.20;;;;;;5008574;28;20148;-72
2021/03/26 13:41:43;;;;;;;21.15;14.57;;;15.90;52.50;;;;;;5006435;28;20046;-72